Smyer, Texas
Current Conditions -  °F | °C
As of 3:53 AM on Wednesday 22 Oct 2014 (Local Time) from KLBB Reporting Station
Overcast Overcast  
Wind Chill: 63°   Ceiling: 7000
Heat Index: 63°   Visibility: 10mi
Dew Point: 50°   Wind: 7mph
Humidity: 63%   Direction: 170°S
Pressure: 30.09"   Gusts: NA
Location:  33.58°N, 102.16°W
Report Text: KLBB 220853Z 17006KT 10SM FEW055 BKN070 OVC100 17/10 A3009 RMK AO2 SLP147 T01720100 51002
Loading
Personal Weather Stations






























Interactive Weather Map
Tropical Storm Tracking
New forecast layout! Learn more

10-Day Weather Forecast

Advertisements
Track Severe Weather on mobile